sensor_id;sensor_type;location;lat;lon;timestamp;P1;durP1;ratioP1;P2;durP2;ratioP2
9773;SDS011;4926;42.670;23.316;2023-07-08T00:00:39;15.15;;;13.30;;
9773;SDS011;4926;42.670;23.316;2023-07-08T00:03:07;15.48;;;13.85;;
9773;SDS011;4926;42.670;23.316;2023-07-08T00:05:33;15.52;;;13.93;;
9773;SDS011;4926;42.670;23.316;2023-07-08T00:08:01;16.30;;;14.15;;
9773;SDS011;4926;42.670;23.316;2023-07-08T00:10:29;16.15;;;13.98;;
9773;SDS011;4926;42.670;23.316;2023-07-08T00:12:56;15.75;;;14.13;;
9773;SDS011;4926;42.670;23.316;2023-07-08T00:15:25;16.77;;;15.10;;
9773;SDS011;4926;42.670;23.316;2023-07-08T00:17:53;22.95;;;15.45;;
9773;SDS011;4926;42.670;23.316;2023-07-08T00:20:23;15.88;;;14.27;;
9773;SDS011;4926;42.670;23.316;2023-07-08T00:22:59;16.42;;;14.93;;
9773;SDS011;4926;42.670;23.316;2023-07-08T00:25:26;16.55;;;14.82;;
9773;SDS011;4926;42.670;23.316;2023-07-08T00:27:56;16.17;;;14.57;;
9773;SDS011;4926;42.670;23.316;2023-07-08T00:30:31;15.82;;;14.30;;
9773;SDS011;4926;42.670;23.316;2023-07-08T00:32:59;16.45;;;14.82;;
9773;SDS011;4926;42.670;23.316;2023-07-08T00:35:28;17.20;;;15.13;;
9773;SDS011;4926;42.670;23.316;2023-07-08T00:37:58;16.80;;;15.20;;
9773;SDS011;4926;42.670;23.316;2023-07-08T00:40:27;16.42;;;14.48;;
9773;SDS011;4926;42.670;23.316;2023-07-08T00:42:54;15.57;;;13.98;;
9773;SDS011;4926;42.670;23.316;2023-07-08T00:45:29;15.32;;;13.93;;
9773;SDS011;4926;42.670;23.316;2023-07-08T00:48:05;15.85;;;14.13;;
9773;SDS011;4926;42.670;23.316;2023-07-08T00:50:36;14.95;;;13.45;;
9773;SDS011;4926;42.670;23.316;2023-07-08T00:53:23;15.52;;;13.95;;
9773;SDS011;4926;42.670;23.316;2023-07-08T00:55:52;16.85;;;14.88;;
9773;SDS011;4926;42.670;23.316;2023-07-08T00:58:21;15.50;;;14.00;;
9773;SDS011;4926;42.670;23.316;2023-07-08T01:00:50;15.50;;;14.02;;
9773;SDS011;4926;42.670;23.316;2023-07-08T01:03:19;15.80;;;14.30;;
9773;SDS011;4926;42.670;23.316;2023-07-08T01:05:49;15.73;;;14.02;;
9773;SDS011;4926;42.670;23.316;2023-07-08T01:08:17;15.35;;;13.85;;
9773;SDS011;4926;42.670;23.316;2023-07-08T01:10:46;15.77;;;14.20;;
9773;SDS011;4926;42.670;23.316;2023-07-08T01:13:17;15.52;;;13.93;;
9773;SDS011;4926;42.670;23.316;2023-07-08T01:15:46;15.73;;;14.15;;
9773;SDS011;4926;42.670;23.316;2023-07-08T01:18:15;14.80;;;13.32;;
9773;SDS011;4926;42.670;23.316;2023-07-08T01:20:45;15.25;;;13.75;;
9773;SDS011;4926;42.670;23.316;2023-07-08T01:23:14;14.27;;;12.68;;
9773;SDS011;4926;42.670;23.316;2023-07-08T01:25:42;14.50;;;13.18;;
9773;SDS011;4926;42.670;23.316;2023-07-08T01:28:10;17.13;;;13.90;;
9773;SDS011;4926;42.670;23.316;2023-07-08T01:30:38;13.73;;;12.43;;
9773;SDS011;4926;42.670;23.316;2023-07-08T01:33:16;16.88;;;13.82;;
9773;SDS011;4926;42.670;23.316;2023-07-08T01:35:47;15.45;;;13.88;;
9773;SDS011;4926;42.670;23.316;2023-07-08T01:38:21;15.82;;;13.25;;
9773;SDS011;4926;42.670;23.316;2023-07-08T01:40:52;15.75;;;13.80;;
9773;SDS011;4926;42.670;23.316;2023-07-08T01:43:22;14.57;;;13.20;;
9773;SDS011;4926;42.670;23.316;2023-07-08T01:45:49;15.98;;;13.10;;
9773;SDS011;4926;42.670;23.316;2023-07-08T01:48:19;15.65;;;13.32;;
9773;SDS011;4926;42.670;23.316;2023-07-08T01:50:51;14.88;;;13.38;;
9773;SDS011;4926;42.670;23.316;2023-07-08T01:53:31;16.98;;;13.07;;
9773;SDS011;4926;42.670;23.316;2023-07-08T01:55:59;14.32;;;12.90;;
9773;SDS011;4926;42.670;23.316;2023-07-08T01:58:26;14.30;;;12.82;;
9773;SDS011;4926;42.670;23.316;2023-07-08T02:00:53;14.45;;;12.95;;
9773;SDS011;4926;42.670;23.316;2023-07-08T02:03:23;15.52;;;13.15;;
9773;SDS011;4926;42.670;23.316;2023-07-08T02:05:52;13.68;;;12.27;;
9773;SDS011;4926;42.670;23.316;2023-07-08T02:08:19;12.93;;;11.73;;
9773;SDS011;4926;42.670;23.316;2023-07-08T02:10:51;14.23;;;12.80;;
9773;SDS011;4926;42.670;23.316;2023-07-08T02:13:18;13.75;;;12.43;;
9773;SDS011;4926;42.670;23.316;2023-07-08T02:15:47;14.48;;;12.40;;
9773;SDS011;4926;42.670;23.316;2023-07-08T02:18:14;13.38;;;11.98;;
9773;SDS011;4926;42.670;23.316;2023-07-08T02:20:44;13.10;;;11.80;;
9773;SDS011;4926;42.670;23.316;2023-07-08T02:23:11;13.38;;;11.98;;
9773;SDS011;4926;42.670;23.316;2023-07-08T02:25:51;13.48;;;12.13;;
9773;SDS011;4926;42.670;23.316;2023-07-08T02:28:18;13.38;;;11.98;;
9773;SDS011;4926;42.670;23.316;2023-07-08T02:30:45;13.27;;;11.90;;
9773;SDS011;4926;42.670;23.316;2023-07-08T02:33:12;12.93;;;11.63;;
9773;SDS011;4926;42.670;23.316;2023-07-08T02:35:39;12.40;;;11.23;;
9773;SDS011;4926;42.670;23.316;2023-07-08T02:38:06;13.57;;;12.27;;
9773;SDS011;4926;42.670;23.316;2023-07-08T02:40:33;13.95;;;12.07;;
9773;SDS011;4926;42.670;23.316;2023-07-08T02:43:01;13.90;;;12.52;;
9773;SDS011;4926;42.670;23.316;2023-07-08T02:45:28;13.77;;;12.38;;
9773;SDS011;4926;42.670;23.316;2023-07-08T02:47:57;13.45;;;12.10;;
9773;SDS011;4926;42.670;23.316;2023-07-08T02:50:24;14.00;;;12.60;;
9773;SDS011;4926;42.670;23.316;2023-07-08T02:52:51;15.00;;;13.48;;
9773;SDS011;4926;42.670;23.316;2023-07-08T02:55:18;14.13;;;12.82;;
9773;SDS011;4926;42.670;23.316;2023-07-08T02:57:44;14.38;;;12.98;;
9773;SDS011;4926;42.670;23.316;2023-07-08T03:00:15;13.85;;;12.48;;
9773;SDS011;4926;42.670;23.316;2023-07-08T03:02:42;13.63;;;12.43;;
9773;SDS011;4926;42.670;23.316;2023-07-08T03:05:08;13.10;;;11.90;;
9773;SDS011;4926;42.670;23.316;2023-07-08T03:07:37;12.88;;;11.63;;
9773;SDS011;4926;42.670;23.316;2023-07-08T03:10:04;15.55;;;12.73;;
9773;SDS011;4926;42.670;23.316;2023-07-08T03:12:31;13.43;;;12.20;;
9773;SDS011;4926;42.670;23.316;2023-07-08T03:14:58;14.75;;;12.15;;
9773;SDS011;4926;42.670;23.316;2023-07-08T03:17:26;12.77;;;11.38;;
9773;SDS011;4926;42.670;23.316;2023-07-08T03:19:53;13.13;;;11.80;;
9773;SDS011;4926;42.670;23.316;2023-07-08T03:22:19;14.00;;;12.18;;
9773;SDS011;4926;42.670;23.316;2023-07-08T03:24:49;12.98;;;10.73;;
9773;SDS011;4926;42.670;23.316;2023-07-08T03:27:15;11.32;;;10.30;;
9773;SDS011;4926;42.670;23.316;2023-07-08T03:29:42;12.40;;;11.00;;
9773;SDS011;4926;42.670;23.316;2023-07-08T03:32:09;11.48;;;10.40;;
9773;SDS011;4926;42.670;23.316;2023-07-08T03:34:38;13.77;;;9.82;;
9773;SDS011;4926;42.670;23.316;2023-07-08T03:37:05;10.93;;;9.90;;
9773;SDS011;4926;42.670;23.316;2023-07-08T03:39:35;11.90;;;10.27;;
9773;SDS011;4926;42.670;23.316;2023-07-08T03:42:07;11.43;;;10.23;;
9773;SDS011;4926;42.670;23.316;2023-07-08T03:44:34;12.95;;;10.07;;
9773;SDS011;4926;42.670;23.316;2023-07-08T03:47:00;12.35;;;9.80;;
9773;SDS011;4926;42.670;23.316;2023-07-08T03:49:27;11.32;;;10.25;;
9773;SDS011;4926;42.670;23.316;2023-07-08T03:51:55;10.73;;;9.50;;
9773;SDS011;4926;42.670;23.316;2023-07-08T03:54:23;12.55;;;9.68;;
9773;SDS011;4926;42.670;23.316;2023-07-08T03:56:51;10.10;;;9.15;;
9773;SDS011;4926;42.670;23.316;2023-07-08T03:59:20;10.40;;;9.30;;
9773;SDS011;4926;42.670;23.316;2023-07-08T04:01:47;10.93;;;9.63;;
9773;SDS011;4926;42.670;23.316;2023-07-08T04:04:14;9.68;;;8.75;;
9773;SDS011;4926;42.670;23.316;2023-07-08T04:06:41;10.35;;;9.40;;
9773;SDS011;4926;42.670;23.316;2023-07-08T04:09:12;10.52;;;9.52;;
9773;SDS011;4926;42.670;23.316;2023-07-08T04:11:39;11.60;;;10.40;;
9773;SDS011;4926;42.670;23.316;2023-07-08T04:14:07;13.05;;;11.75;;
9773;SDS011;4926;42.670;23.316;2023-07-08T04:16:41;15.18;;;13.50;;
9773;SDS011;4926;42.670;23.316;2023-07-08T04:19:11;15.07;;;13.45;;
9773;SDS011;4926;42.670;23.316;2023-07-08T04:21:39;12.20;;;11.00;;
9773;SDS011;4926;42.670;23.316;2023-07-08T04:24:09;14.20;;;10.93;;
9773;SDS011;4926;42.670;23.316;2023-07-08T04:26:38;12.35;;;10.50;;
9773;SDS011;4926;42.670;23.316;2023-07-08T04:29:10;14.30;;;9.52;;
9773;SDS011;4926;42.670;23.316;2023-07-08T04:31:47;11.50;;;9.23;;
9773;SDS011;4926;42.670;23.316;2023-07-08T04:34:14;10.20;;;8.45;;
9773;SDS011;4926;42.670;23.316;2023-07-08T04:36:42;10.55;;;8.88;;
9773;SDS011;4926;42.670;23.316;2023-07-08T04:39:12;10.93;;;9.25;;
9773;SDS011;4926;42.670;23.316;2023-07-08T04:41:40;10.68;;;8.75;;
9773;SDS011;4926;42.670;23.316;2023-07-08T04:44:09;9.55;;;8.65;;
9773;SDS011;4926;42.670;23.316;2023-07-08T04:46:36;9.98;;;9.02;;
9773;SDS011;4926;42.670;23.316;2023-07-08T04:49:06;11.13;;;9.00;;
9773;SDS011;4926;42.670;23.316;2023-07-08T04:51:35;9.23;;;8.32;;
9773;SDS011;4926;42.670;23.316;2023-07-08T04:54:02;10.00;;;8.82;;
9773;SDS011;4926;42.670;23.316;2023-07-08T04:56:34;9.70;;;8.70;;
9773;SDS011;4926;42.670;23.316;2023-07-08T04:59:07;10.90;;;8.98;;
9773;SDS011;4926;42.670;23.316;2023-07-08T05:01:34;10.68;;;9.00;;
9773;SDS011;4926;42.670;23.316;2023-07-08T05:04:04;11.98;;;8.70;;
9773;SDS011;4926;42.670;23.316;2023-07-08T05:06:31;10.02;;;9.02;;
9773;SDS011;4926;42.670;23.316;2023-07-08T05:08:59;10.23;;;9.15;;
9773;SDS011;4926;42.670;23.316;2023-07-08T05:11:26;10.82;;;9.02;;
9773;SDS011;4926;42.670;23.316;2023-07-08T05:13:53;9.38;;;8.38;;
9773;SDS011;4926;42.670;23.316;2023-07-08T05:16:21;9.75;;;8.80;;
9773;SDS011;4926;42.670;23.316;2023-07-08T05:18:47;9.95;;;8.60;;
9773;SDS011;4926;42.670;23.316;2023-07-08T05:21:15;10.10;;;9.10;;
9773;SDS011;4926;42.670;23.316;2023-07-08T05:23:42;9.85;;;8.15;;
9773;SDS011;4926;42.670;23.316;2023-07-08T05:26:11;10.70;;;8.63;;
9773;SDS011;4926;42.670;23.316;2023-07-08T05:28:38;9.73;;;8.30;;
9773;SDS011;4926;42.670;23.316;2023-07-08T05:31:05;10.68;;;7.97;;
9773;SDS011;4926;42.670;23.316;2023-07-08T05:33:33;10.30;;;7.60;;
9773;SDS011;4926;42.670;23.316;2023-07-08T05:36:01;12.30;;;8.40;;
9773;SDS011;4926;42.670;23.316;2023-07-08T05:38:28;9.00;;;7.72;;
9773;SDS011;4926;42.670;23.316;2023-07-08T05:40:57;11.73;;;8.50;;
9773;SDS011;4926;42.670;23.316;2023-07-08T05:43:25;9.52;;;8.25;;
9773;SDS011;4926;42.670;23.316;2023-07-08T05:45:58;11.15;;;7.88;;
9773;SDS011;4926;42.670;23.316;2023-07-08T05:48:25;8.98;;;6.93;;
9773;SDS011;4926;42.670;23.316;2023-07-08T05:50:53;9.40;;;7.50;;
9773;SDS011;4926;42.670;23.316;2023-07-08T05:53:20;8.30;;;7.50;;
9773;SDS011;4926;42.670;23.316;2023-07-08T05:55:50;8.07;;;6.90;;
9773;SDS011;4926;42.670;23.316;2023-07-08T05:58:20;8.35;;;7.55;;
9773;SDS011;4926;42.670;23.316;2023-07-08T06:00:46;8.23;;;7.05;;
9773;SDS011;4926;42.670;23.316;2023-07-08T06:03:15;9.00;;;7.28;;
9773;SDS011;4926;42.670;23.316;2023-07-08T06:05:42;8.07;;;7.28;;
9773;SDS011;4926;42.670;23.316;2023-07-08T06:08:10;13.63;;;7.75;;
9773;SDS011;4926;42.670;23.316;2023-07-08T06:10:41;9.13;;;8.23;;
9773;SDS011;4926;42.670;23.316;2023-07-08T06:13:08;8.48;;;7.57;;
9773;SDS011;4926;42.670;23.316;2023-07-08T06:15:34;10.88;;;7.72;;
9773;SDS011;4926;42.670;23.316;2023-07-08T06:18:01;12.82;;;7.50;;
9773;SDS011;4926;42.670;23.316;2023-07-08T06:20:28;12.88;;;8.38;;
9773;SDS011;4926;42.670;23.316;2023-07-08T06:22:55;14.77;;;8.23;;
9773;SDS011;4926;42.670;23.316;2023-07-08T06:25:23;8.55;;;7.75;;
9773;SDS011;4926;42.670;23.316;2023-07-08T06:27:50;9.95;;;8.50;;
9773;SDS011;4926;42.670;23.316;2023-07-08T06:30:16;13.43;;;8.30;;
9773;SDS011;4926;42.670;23.316;2023-07-08T06:32:49;11.73;;;8.40;;
9773;SDS011;4926;42.670;23.316;2023-07-08T06:35:16;12.45;;;7.45;;
9773;SDS011;4926;42.670;23.316;2023-07-08T06:37:43;8.07;;;7.28;;
9773;SDS011;4926;42.670;23.316;2023-07-08T06:40:12;8.82;;;7.93;;
9773;SDS011;4926;42.670;23.316;2023-07-08T06:42:41;11.95;;;7.65;;
9773;SDS011;4926;42.670;23.316;2023-07-08T06:45:10;11.38;;;7.97;;
9773;SDS011;4926;42.670;23.316;2023-07-08T06:47:37;11.63;;;7.25;;
9773;SDS011;4926;42.670;23.316;2023-07-08T06:50:07;9.77;;;7.40;;
9773;SDS011;4926;42.670;23.316;2023-07-08T06:52:34;9.80;;;7.30;;
9773;SDS011;4926;42.670;23.316;2023-07-08T06:55:02;11.27;;;7.57;;
9773;SDS011;4926;42.670;23.316;2023-07-08T06:57:30;11.68;;;7.20;;
9773;SDS011;4926;42.670;23.316;2023-07-08T07:00:00;8.25;;;7.05;;
9773;SDS011;4926;42.670;23.316;2023-07-08T07:02:28;9.20;;;7.13;;
9773;SDS011;4926;42.670;23.316;2023-07-08T07:04:58;8.60;;;6.38;;
9773;SDS011;4926;42.670;23.316;2023-07-08T07:07:27;8.45;;;6.97;;
9773;SDS011;4926;42.670;23.316;2023-07-08T07:09:54;7.55;;;6.40;;
9773;SDS011;4926;42.670;23.316;2023-07-08T07:12:23;7.85;;;6.22;;
9773;SDS011;4926;42.670;23.316;2023-07-08T07:14:51;7.28;;;6.40;;
9773;SDS011;4926;42.670;23.316;2023-07-08T07:17:23;7.65;;;6.93;;
9773;SDS011;4926;42.670;23.316;2023-07-08T07:19:52;9.10;;;6.47;;
9773;SDS011;4926;42.670;23.316;2023-07-08T07:22:21;7.30;;;6.60;;
9773;SDS011;4926;42.670;23.316;2023-07-08T07:24:51;10.27;;;6.72;;
9773;SDS011;4926;42.670;23.316;2023-07-08T07:27:17;8.68;;;7.40;;
9773;SDS011;4926;42.670;23.316;2023-07-08T07:29:45;7.53;;;6.78;;
9773;SDS011;4926;42.670;23.316;2023-07-08T07:32:14;8.35;;;7.32;;
9773;SDS011;4926;42.670;23.316;2023-07-08T07:34:45;8.25;;;7.20;;
9773;SDS011;4926;42.670;23.316;2023-07-08T07:37:15;11.02;;;7.47;;
9773;SDS011;4926;42.670;23.316;2023-07-08T07:39:49;10.55;;;7.07;;
9773;SDS011;4926;42.670;23.316;2023-07-08T07:42:15;7.53;;;6.82;;
9773;SDS011;4926;42.670;23.316;2023-07-08T07:44:48;8.88;;;6.50;;
9773;SDS011;4926;42.670;23.316;2023-07-08T07:47:17;8.30;;;7.20;;
9773;SDS011;4926;42.670;23.316;2023-07-08T07:49:48;7.00;;;6.40;;
9773;SDS011;4926;42.670;23.316;2023-07-08T07:52:14;9.20;;;6.97;;
9773;SDS011;4926;42.670;23.316;2023-07-08T07:54:47;7.70;;;6.35;;
9773;SDS011;4926;42.670;23.316;2023-07-08T07:57:16;7.25;;;6.55;;
9773;SDS011;4926;42.670;23.316;2023-07-08T07:59:42;6.97;;;6.28;;
9773;SDS011;4926;42.670;23.316;2023-07-08T08:02:15;7.93;;;6.40;;
9773;SDS011;4926;42.670;23.316;2023-07-08T08:04:42;7.22;;;6.53;;
9773;SDS011;4926;42.670;23.316;2023-07-08T08:07:13;6.88;;;6.18;;
9773;SDS011;4926;42.670;23.316;2023-07-08T08:09:40;10.90;;;7.25;;
9773;SDS011;4926;42.670;23.316;2023-07-08T08:12:07;7.50;;;6.80;;
9773;SDS011;4926;42.670;23.316;2023-07-08T08:14:35;9.32;;;7.32;;
9773;SDS011;4926;42.670;23.316;2023-07-08T08:17:05;7.43;;;6.72;;
9773;SDS011;4926;42.670;23.316;2023-07-08T08:19:32;8.63;;;7.63;;
9773;SDS011;4926;42.670;23.316;2023-07-08T08:21:58;7.68;;;6.72;;
9773;SDS011;4926;42.670;23.316;2023-07-08T08:24:30;9.27;;;7.05;;
9773;SDS011;4926;42.670;23.316;2023-07-08T08:26:57;7.70;;;6.90;;
9773;SDS011;4926;42.670;23.316;2023-07-08T08:29:23;7.20;;;6.35;;
9773;SDS011;4926;42.670;23.316;2023-07-08T08:31:51;7.38;;;6.63;;
9773;SDS011;4926;42.670;23.316;2023-07-08T08:34:19;10.45;;;7.35;;
9773;SDS011;4926;42.670;23.316;2023-07-08T08:36:47;7.15;;;6.45;;
9773;SDS011;4926;42.670;23.316;2023-07-08T08:39:20;8.95;;;6.90;;
9773;SDS011;4926;42.670;23.316;2023-07-08T08:41:48;7.50;;;6.35;;
9773;SDS011;4926;42.670;23.316;2023-07-08T08:44:17;7.57;;;6.85;;
9773;SDS011;4926;42.670;23.316;2023-07-08T08:46:54;7.97;;;7.20;;
9773;SDS011;4926;42.670;23.316;2023-07-08T08:49:29;8.27;;;7.10;;
9773;SDS011;4926;42.670;23.316;2023-07-08T08:52:02;9.40;;;6.55;;
9773;SDS011;4926;42.670;23.316;2023-07-08T08:54:28;10.30;;;6.30;;
9773;SDS011;4926;42.670;23.316;2023-07-08T08:56:59;8.07;;;6.45;;
9773;SDS011;4926;42.670;23.316;2023-07-08T08:59:32;7.07;;;6.35;;
9773;SDS011;4926;42.670;23.316;2023-07-08T09:02:11;9.30;;;6.50;;
9773;SDS011;4926;42.670;23.316;2023-07-08T09:04:52;7.00;;;6.40;;
9773;SDS011;4926;42.670;23.316;2023-07-08T09:07:19;7.75;;;6.25;;
9773;SDS011;4926;42.670;23.316;2023-07-08T09:09:51;7.35;;;6.60;;
9773;SDS011;4926;42.670;23.316;2023-07-08T09:12:28;8.43;;;6.75;;
9773;SDS011;4926;42.670;23.316;2023-07-08T09:15:00;6.85;;;6.15;;
9773;SDS011;4926;42.670;23.316;2023-07-08T09:17:40;7.35;;;6.15;;
9773;SDS011;4926;42.670;23.316;2023-07-08T09:20:11;9.57;;;6.70;;
9773;SDS011;4926;42.670;23.316;2023-07-08T09:22:47;7.10;;;6.43;;
9773;SDS011;4926;42.670;23.316;2023-07-08T09:25:21;6.53;;;5.93;;
9773;SDS011;4926;42.670;23.316;2023-07-08T09:27:53;6.90;;;6.13;;
9773;SDS011;4926;42.670;23.316;2023-07-08T09:30:21;6.65;;;5.85;;
9773;SDS011;4926;42.670;23.316;2023-07-08T09:32:49;6.50;;;5.88;;
9773;SDS011;4926;42.670;23.316;2023-07-08T09:35:17;7.47;;;6.30;;
9773;SDS011;4926;42.670;23.316;2023-07-08T09:37:45;9.13;;;6.00;;
9773;SDS011;4926;42.670;23.316;2023-07-08T09:40:15;7.82;;;5.90;;
9773;SDS011;4926;42.670;23.316;2023-07-08T09:42:44;7.75;;;6.57;;
9773;SDS011;4926;42.670;23.316;2023-07-08T09:45:17;7.47;;;5.53;;
9773;SDS011;4926;42.670;23.316;2023-07-08T09:47:46;6.28;;;5.55;;
9773;SDS011;4926;42.670;23.316;2023-07-08T09:50:17;7.10;;;5.70;;
9773;SDS011;4926;42.670;23.316;2023-07-08T09:52:49;7.03;;;5.47;;
9773;SDS011;4926;42.670;23.316;2023-07-08T09:55:19;9.40;;;5.70;;
9773;SDS011;4926;42.670;23.316;2023-07-08T09:57:48;8.50;;;6.05;;
9773;SDS011;4926;42.670;23.316;2023-07-08T10:00:26;6.05;;;5.55;;
9773;SDS011;4926;42.670;23.316;2023-07-08T10:02:55;7.20;;;5.78;;
9773;SDS011;4926;42.670;23.316;2023-07-08T10:05:35;5.75;;;5.25;;
9773;SDS011;4926;42.670;23.316;2023-07-08T10:08:17;5.68;;;5.18;;
9773;SDS011;4926;42.670;23.316;2023-07-08T10:10:45;5.63;;;5.13;;
9773;SDS011;4926;42.670;23.316;2023-07-08T10:13:16;6.32;;;5.63;;
9773;SDS011;4926;42.670;23.316;2023-07-08T10:15:49;6.60;;;5.63;;
9773;SDS011;4926;42.670;23.316;2023-07-08T10:18:22;8.40;;;5.28;;
9773;SDS011;4926;42.670;23.316;2023-07-08T10:20:55;6.00;;;5.40;;
9773;SDS011;4926;42.670;23.316;2023-07-08T10:23:38;8.40;;;5.40;;
9773;SDS011;4926;42.670;23.316;2023-07-08T10:26:10;7.68;;;4.85;;
9773;SDS011;4926;42.670;23.316;2023-07-08T10:28:49;6.70;;;5.45;;
9773;SDS011;4926;42.670;23.316;2023-07-08T10:31:27;5.50;;;5.00;;
9773;SDS011;4926;42.670;23.316;2023-07-08T10:34:05;5.85;;;4.88;;
9773;SDS011;4926;42.670;23.316;2023-07-08T10:36:46;7.00;;;4.60;;
9773;SDS011;4926;42.670;23.316;2023-07-08T10:39:33;5.88;;;5.10;;
9773;SDS011;4926;42.670;23.316;2023-07-08T10:42:23;6.05;;;4.88;;
9773;SDS011;4926;42.670;23.316;2023-07-08T10:45:04;6.63;;;4.57;;
9773;SDS011;4926;42.670;23.316;2023-07-08T10:47:42;5.30;;;4.68;;
9773;SDS011;4926;42.670;23.316;2023-07-08T10:50:24;5.38;;;4.88;;
9773;SDS011;4926;42.670;23.316;2023-07-08T10:53:09;5.10;;;4.63;;
9773;SDS011;4926;42.670;23.316;2023-07-08T10:55:51;4.95;;;4.55;;
9773;SDS011;4926;42.670;23.316;2023-07-08T10:58:37;5.93;;;4.53;;
9773;SDS011;4926;42.670;23.316;2023-07-08T11:01:15;4.82;;;4.32;;
9773;SDS011;4926;42.670;23.316;2023-07-08T11:04:05;5.57;;;4.88;;
9773;SDS011;4926;42.670;23.316;2023-07-08T11:06:45;5.13;;;4.43;;
9773;SDS011;4926;42.670;23.316;2023-07-08T11:09:16;5.70;;;4.90;;
9773;SDS011;4926;42.670;23.316;2023-07-08T11:11:49;5.90;;;4.75;;
9773;SDS011;4926;42.670;23.316;2023-07-08T11:14:20;5.07;;;4.50;;
9773;SDS011;4926;42.670;23.316;2023-07-08T11:16:55;5.20;;;4.70;;
9773;SDS011;4926;42.670;23.316;2023-07-08T11:19:32;5.20;;;4.70;;
9773;SDS011;4926;42.670;23.316;2023-07-08T11:22:05;5.53;;;4.25;;
9773;SDS011;4926;42.670;23.316;2023-07-08T11:24:37;4.82;;;4.43;;
9773;SDS011;4926;42.670;23.316;2023-07-08T11:27:10;4.90;;;4.40;;
9773;SDS011;4926;42.670;23.316;2023-07-08T11:29:45;6.43;;;4.85;;
9773;SDS011;4926;42.670;23.316;2023-07-08T11:32:16;5.38;;;4.80;;
9773;SDS011;4926;42.670;23.316;2023-07-08T11:34:50;5.43;;;4.93;;
9773;SDS011;4926;42.670;23.316;2023-07-08T11:37:21;4.68;;;4.25;;
9773;SDS011;4926;42.670;23.316;2023-07-08T11:39:54;5.50;;;5.00;;
9773;SDS011;4926;42.670;23.316;2023-07-08T11:42:24;5.78;;;5.28;;
9773;SDS011;4926;42.670;23.316;2023-07-08T11:44:58;4.95;;;4.55;;
9773;SDS011;4926;42.670;23.316;2023-07-08T11:47:32;4.53;;;4.13;;
9773;SDS011;4926;42.670;23.316;2023-07-08T11:50:08;4.90;;;4.47;;
9773;SDS011;4926;42.670;23.316;2023-07-08T11:52:50;6.07;;;4.70;;
9773;SDS011;4926;42.670;23.316;2023-07-08T11:55:21;4.60;;;4.20;;
9773;SDS011;4926;42.670;23.316;2023-07-08T11:57:53;4.40;;;4.00;;
9773;SDS011;4926;42.670;23.316;2023-07-08T12:00:23;5.03;;;4.53;;
9773;SDS011;4926;42.670;23.316;2023-07-08T12:02:52;5.00;;;4.18;;
9773;SDS011;4926;42.670;23.316;2023-07-08T12:05:34;6.60;;;4.43;;
9773;SDS011;4926;42.670;23.316;2023-07-08T12:08:11;4.65;;;4.20;;
9773;SDS011;4926;42.670;23.316;2023-07-08T12:10:45;4.28;;;3.92;;
9773;SDS011;4926;42.670;23.316;2023-07-08T12:13:15;5.45;;;4.30;;
9773;SDS011;4926;42.670;23.316;2023-07-08T12:15:44;4.30;;;3.90;;
9773;SDS011;4926;42.670;23.316;2023-07-08T12:18:12;4.28;;;3.83;;
9773;SDS011;4926;42.670;23.316;2023-07-08T12:20:44;4.45;;;4.05;;
9773;SDS011;4926;42.670;23.316;2023-07-08T12:23:17;4.40;;;4.00;;
9773;SDS011;4926;42.670;23.316;2023-07-08T12:25:45;6.15;;;3.90;;
9773;SDS011;4926;42.670;23.316;2023-07-08T12:28:13;5.03;;;4.50;;
9773;SDS011;4926;42.670;23.316;2023-07-08T12:30:41;7.50;;;3.92;;
9773;SDS011;4926;42.670;23.316;2023-07-08T12:33:11;4.70;;;4.30;;
9773;SDS011;4926;42.670;23.316;2023-07-08T12:35:39;5.38;;;3.88;;
9773;SDS011;4926;42.670;23.316;2023-07-08T12:38:12;6.03;;;4.15;;
9773;SDS011;4926;42.670;23.316;2023-07-08T12:40:44;4.68;;;3.85;;
9773;SDS011;4926;42.670;23.316;2023-07-08T12:43:11;5.03;;;4.00;;
9773;SDS011;4926;42.670;23.316;2023-07-08T12:45:38;5.90;;;4.13;;
9773;SDS011;4926;42.670;23.316;2023-07-08T12:48:05;4.10;;;3.67;;
9773;SDS011;4926;42.670;23.316;2023-07-08T12:50:32;4.78;;;4.00;;
9773;SDS011;4926;42.670;23.316;2023-07-08T12:52:58;4.88;;;3.65;;
9773;SDS011;4926;42.670;23.316;2023-07-08T12:55:41;6.03;;;3.60;;
9773;SDS011;4926;42.670;23.316;2023-07-08T12:58:10;5.00;;;3.72;;
9773;SDS011;4926;42.670;23.316;2023-07-08T13:00:43;4.68;;;3.72;;
9773;SDS011;4926;42.670;23.316;2023-07-08T13:03:14;5.18;;;3.90;;
9773;SDS011;4926;42.670;23.316;2023-07-08T13:05:46;6.13;;;3.97;;
9773;SDS011;4926;42.670;23.316;2023-07-08T13:08:15;3.45;;;3.15;;
9773;SDS011;4926;42.670;23.316;2023-07-08T13:10:50;4.40;;;3.70;;
9773;SDS011;4926;42.670;23.316;2023-07-08T13:13:20;4.13;;;3.47;;
9773;SDS011;4926;42.670;23.316;2023-07-08T13:15:51;5.75;;;3.55;;
9773;SDS011;4926;42.670;23.316;2023-07-08T13:18:20;5.80;;;3.63;;
9773;SDS011;4926;42.670;23.316;2023-07-08T13:20:50;4.57;;;3.60;;
9773;SDS011;4926;42.670;23.316;2023-07-08T13:23:19;3.90;;;3.38;;
9773;SDS011;4926;42.670;23.316;2023-07-08T13:25:48;3.65;;;3.10;;
9773;SDS011;4926;42.670;23.316;2023-07-08T13:28:17;3.92;;;3.45;;
9773;SDS011;4926;42.670;23.316;2023-07-08T13:30:53;6.07;;;3.90;;
9773;SDS011;4926;42.670;23.316;2023-07-08T13:33:22;3.65;;;3.35;;
9773;SDS011;4926;42.670;23.316;2023-07-08T13:35:50;3.70;;;3.40;;
9773;SDS011;4926;42.670;23.316;2023-07-08T13:38:19;4.10;;;3.60;;
9773;SDS011;4926;42.670;23.316;2023-07-08T13:40:53;5.80;;;3.55;;
9773;SDS011;4926;42.670;23.316;2023-07-08T13:43:23;4.30;;;3.42;;
9773;SDS011;4926;42.670;23.316;2023-07-08T13:45:53;5.15;;;3.90;;
9773;SDS011;4926;42.670;23.316;2023-07-08T13:48:21;4.18;;;3.70;;
9773;SDS011;4926;42.670;23.316;2023-07-08T13:50:55;6.10;;;3.75;;
9773;SDS011;4926;42.670;23.316;2023-07-08T13:53:25;5.93;;;3.30;;
9773;SDS011;4926;42.670;23.316;2023-07-08T13:55:58;5.65;;;3.88;;
9773;SDS011;4926;42.670;23.316;2023-07-08T13:58:26;4.18;;;3.58;;
9773;SDS011;4926;42.670;23.316;2023-07-08T14:00:55;3.95;;;3.50;;
9773;SDS011;4926;42.670;23.316;2023-07-08T14:03:25;4.97;;;3.28;;
9773;SDS011;4926;42.670;23.316;2023-07-08T14:05:54;3.75;;;3.30;;
9773;SDS011;4926;42.670;23.316;2023-07-08T14:08:21;3.47;;;3.17;;
9773;SDS011;4926;42.670;23.316;2023-07-08T14:10:51;3.63;;;3.28;;
9773;SDS011;4926;42.670;23.316;2023-07-08T14:13:19;4.20;;;3.78;;
9773;SDS011;4926;42.670;23.316;2023-07-08T14:15:46;4.50;;;3.45;;
9773;SDS011;4926;42.670;23.316;2023-07-08T14:18:13;6.60;;;3.30;;
9773;SDS011;4926;42.670;23.316;2023-07-08T14:20:40;5.10;;;3.70;;
9773;SDS011;4926;42.670;23.316;2023-07-08T14:23:09;3.47;;;3.17;;
9773;SDS011;4926;42.670;23.316;2023-07-08T14:25:38;3.53;;;3.20;;
9773;SDS011;4926;42.670;23.316;2023-07-08T14:28:05;3.42;;;3.13;;
9773;SDS011;4926;42.670;23.316;2023-07-08T14:30:33;3.53;;;3.22;;
9773;SDS011;4926;42.670;23.316;2023-07-08T14:33:08;6.25;;;3.20;;
9773;SDS011;4926;42.670;23.316;2023-07-08T14:35:36;3.85;;;3.55;;
9773;SDS011;4926;42.670;23.316;2023-07-08T14:38:05;3.53;;;3.20;;
9773;SDS011;4926;42.670;23.316;2023-07-08T14:40:38;3.80;;;3.50;;
9773;SDS011;4926;42.670;23.316;2023-07-08T14:43:07;4.93;;;3.58;;
9773;SDS011;4926;42.670;23.316;2023-07-08T14:45:42;4.63;;;4.00;;
9773;SDS011;4926;42.670;23.316;2023-07-08T14:48:12;4.25;;;3.45;;
9773;SDS011;4926;42.670;23.316;2023-07-08T14:50:39;4.93;;;3.60;;
9773;SDS011;4926;42.670;23.316;2023-07-08T14:53:06;4.70;;;3.65;;
9773;SDS011;4926;42.670;23.316;2023-07-08T14:55:34;4.10;;;3.67;;
9773;SDS011;4926;42.670;23.316;2023-07-08T14:58:02;6.03;;;3.90;;
9773;SDS011;4926;42.670;23.316;2023-07-08T15:00:30;4.95;;;4.07;;
9773;SDS011;4926;42.670;23.316;2023-07-08T15:02:59;5.07;;;4.00;;
9773;SDS011;4926;42.670;23.316;2023-07-08T15:05:28;4.07;;;3.63;;
9773;SDS011;4926;42.670;23.316;2023-07-08T15:07:55;5.78;;;4.05;;
9773;SDS011;4926;42.670;23.316;2023-07-08T15:10:24;5.20;;;3.63;;